createdAt,value
2023-04-06T00:01:06.385Z,79.10
2023-04-06T00:06:16.061Z,79.80
2023-04-06T00:08:47.956Z,79.50
2023-04-06T00:11:24.325Z,80.20
2023-04-06T00:13:55.071Z,79.10
2023-04-06T00:16:35.856Z,79.20
2023-04-06T00:19:08.123Z,78.50
2023-04-06T00:21:40.115Z,78.30
2023-04-06T00:24:11.889Z,79.10
2023-04-06T00:27:00.787Z,79.30
2023-04-06T00:29:31.994Z,79.60
2023-04-06T00:32:03.022Z,79.80
2023-04-06T00:34:34.208Z,77.40
2023-04-06T00:37:04.901Z,77.10
2023-04-06T00:39:36.157Z,76.10
2023-04-06T00:42:19.525Z,76.10
2023-04-06T00:44:51.707Z,75.70
2023-04-06T00:47:22.625Z,76.20
2023-04-06T00:49:53.198Z,75.30
2023-04-06T00:52:24.663Z,75.20
2023-04-06T00:54:55.554Z,74.80
2023-04-06T00:57:28.081Z,75.30
2023-04-06T01:00:01.022Z,74.50
2023-04-06T01:02:31.487Z,74.40
2023-04-06T01:05:02.959Z,74.80
2023-04-06T01:07:33.793Z,74.20
2023-04-06T01:10:07.392Z,74.20
2023-04-06T01:12:39.943Z,74.90
2023-04-06T01:15:12.091Z,76.40
2023-04-06T01:17:44.742Z,76.80
2023-04-06T01:20:15.781Z,75.90
2023-04-06T01:22:48.457Z,76.00
2023-04-06T01:25:19.327Z,76.20
2023-04-06T01:27:50.795Z,75.30
2023-04-06T01:30:21.597Z,74.70
2023-04-06T01:32:54.558Z,74.00
2023-04-06T01:35:25.547Z,73.20
2023-04-06T01:37:56.198Z,73.30
2023-04-06T01:40:27.161Z,73.00
2023-04-06T01:42:58.214Z,71.10
2023-04-06T01:45:29.446Z,71.00
2023-04-06T01:48:00.861Z,70.10
2023-04-06T01:50:31.652Z,70.30
2023-04-06T01:53:02.398Z,69.70
2023-04-06T01:55:33.551Z,70.60
2023-04-06T01:58:04.292Z,69.60
2023-04-06T02:00:36.324Z,68.30
2023-04-06T02:03:09.217Z,69.70
2023-04-06T02:05:42.730Z,68.00
2023-04-06T02:08:13.581Z,67.60
2023-04-06T02:10:44.667Z,67.50
2023-04-06T02:13:15.642Z,67.00
2023-04-06T02:15:46.571Z,66.20
2023-04-06T02:18:17.541Z,67.00
2023-04-06T02:20:49.813Z,67.00
2023-04-06T02:23:20.521Z,67.40
2023-04-06T02:25:51.460Z,67.20
2023-04-06T02:28:22.552Z,67.80
2023-04-06T02:30:53.547Z,68.30
2023-04-06T02:33:25.264Z,67.90
2023-04-06T02:35:56.042Z,68.90
2023-04-06T02:38:29.469Z,69.20
2023-04-06T02:41:01.634Z,68.30
2023-04-06T02:43:32.671Z,68.00
2023-04-06T02:46:03.391Z,68.10
2023-04-06T02:48:35.971Z,67.90
2023-04-06T02:51:07.213Z,67.10
2023-04-06T02:53:38.387Z,66.70
2023-04-06T02:56:09.922Z,68.10
2023-04-06T02:58:40.604Z,69.00
2023-04-06T03:01:11.377Z,69.70
2023-04-06T03:03:42.551Z,68.30
2023-04-06T03:06:13.347Z,66.10
2023-04-06T03:08:44.065Z,67.70
2023-04-06T03:11:14.824Z,67.90
2023-04-06T03:13:45.536Z,67.70
2023-04-06T03:16:16.409Z,68.40
2023-04-06T03:18:48.378Z,68.90
2023-04-06T03:21:20.205Z,68.90
2023-04-06T03:23:54.276Z,67.10
2023-04-06T03:26:25.312Z,66.90
2023-04-06T03:28:57.646Z,67.90
2023-04-06T03:31:28.561Z,68.10
2023-04-06T03:33:59.763Z,67.80
2023-04-06T03:36:32.590Z,68.50
2023-04-06T03:39:04.488Z,68.30
2023-04-06T03:41:35.506Z,69.30
2023-04-06T03:44:06.147Z,70.10
2023-04-06T03:46:37.038Z,69.30
2023-04-06T03:49:08.495Z,67.40
2023-04-06T03:51:40.466Z,67.90
2023-04-06T03:54:12.449Z,66.20
2023-04-06T03:56:43.682Z,69.10
2023-04-06T03:59:14.782Z,67.60
2023-04-06T04:01:46.690Z,67.70
2023-04-06T04:04:19.481Z,66.70
2023-04-06T04:06:50.295Z,64.90
2023-04-06T04:09:21.019Z,65.30
2023-04-06T04:11:52.273Z,63.60
2023-04-06T04:14:23.269Z,61.70
2023-04-06T04:16:54.622Z,61.30
2023-04-06T04:19:25.414Z,62.40
2023-04-06T04:21:57.201Z,61.40
2023-04-06T04:24:27.923Z,61.20
2023-04-06T04:26:59.153Z,60.10
2023-04-06T04:29:29.862Z,59.50
2023-04-06T04:32:01.252Z,58.90
2023-04-06T04:34:34.107Z,59.70
2023-04-06T04:37:06.032Z,59.70
2023-04-06T04:39:36.926Z,60.00
2023-04-06T04:42:08.901Z,59.80
2023-04-06T04:44:39.643Z,59.90
2023-04-06T04:47:10.372Z,60.20
2023-04-06T04:49:42.245Z,61.20
2023-04-06T04:52:13.082Z,60.80
2023-04-06T04:54:44.514Z,59.80
2023-04-06T04:57:16.602Z,60.40
2023-04-06T04:59:47.740Z,59.60
2023-04-06T05:02:18.821Z,59.80
2023-04-06T05:04:49.569Z,59.90
2023-04-06T05:07:22.055Z,60.10
2023-04-06T05:09:53.022Z,59.40
2023-04-06T05:12:24.364Z,59.00
2023-04-06T05:14:55.113Z,60.80
2023-04-06T05:17:27.891Z,61.30
2023-04-06T05:19:58.954Z,61.90
2023-04-06T05:22:30.028Z,62.60
2023-04-06T05:25:01.976Z,62.30
2023-04-06T05:27:32.754Z,62.90
2023-04-06T05:30:03.418Z,62.20
2023-04-06T05:32:34.197Z,62.30
2023-04-06T05:35:09.541Z,62.50
2023-04-06T05:37:43.025Z,62.80
2023-04-06T05:40:15.311Z,63.00
2023-04-06T05:42:50.700Z,62.20
2023-04-06T05:45:21.580Z,61.80
2023-04-06T05:47:54.539Z,62.30
2023-04-06T05:50:32.954Z,62.60
2023-04-06T05:53:03.764Z,62.00
2023-04-06T05:55:34.761Z,62.50
2023-04-06T05:58:05.480Z,62.80
2023-04-06T06:00:37.994Z,63.00
2023-04-06T06:03:10.131Z,63.30
2023-04-06T06:05:44.806Z,62.30
2023-04-06T06:08:15.595Z,63.20
2023-04-06T06:10:48.314Z,62.60
2023-04-06T06:13:20.181Z,63.30
2023-04-06T06:15:51.372Z,64.00
2023-04-06T06:18:23.290Z,65.00
2023-04-06T06:20:54.491Z,64.80
2023-04-06T06:23:25.550Z,65.00
2023-04-06T06:25:56.855Z,65.30
2023-04-06T06:28:28.449Z,65.50
2023-04-06T06:31:00.356Z,65.10
2023-04-06T06:33:32.315Z,64.30
2023-04-06T06:36:05.178Z,64.20
2023-04-06T06:38:36.144Z,64.70
2023-04-06T06:41:06.815Z,64.80
2023-04-06T06:43:38.766Z,64.70
2023-04-06T06:46:09.887Z,64.50
2023-04-06T06:48:42.559Z,64.00
2023-04-06T06:51:14.860Z,63.60
2023-04-06T06:53:46.081Z,64.30
2023-04-06T06:56:16.668Z,63.70
2023-04-06T06:58:47.944Z,62.90
2023-04-06T07:01:18.324Z,63.20
2023-04-06T07:03:48.644Z,63.60
2023-04-06T07:06:18.907Z,63.60
2023-04-06T07:08:49.289Z,62.50
2023-04-06T07:11:19.988Z,63.20
2023-04-06T07:13:50.901Z,66.00
2023-04-06T07:16:23.333Z,66.10
2023-04-06T07:18:55.177Z,65.60
2023-04-06T07:21:25.902Z,65.80
2023-04-06T07:23:56.949Z,66.10
2023-04-06T07:26:27.908Z,66.40
2023-04-06T07:28:58.631Z,66.90
2023-04-06T07:31:29.408Z,66.40
2023-04-06T07:34:00.648Z,67.00
2023-04-06T07:36:31.547Z,67.90
2023-04-06T07:39:03.619Z,68.20
2023-04-06T07:41:54.629Z,68.50
2023-04-06T07:44:45.296Z,68.90
2023-04-06T07:47:16.272Z,69.40
2023-04-06T07:49:49.725Z,69.90
2023-04-06T07:52:20.415Z,70.30
2023-04-06T07:54:52.191Z,70.50
2023-04-06T07:57:23.342Z,70.30
2023-04-06T07:59:55.212Z,70.80
2023-04-06T08:02:27.145Z,71.50
2023-04-06T08:04:58.088Z,72.00
2023-04-06T08:07:30.640Z,73.20
2023-04-06T08:10:01.478Z,72.70
2023-04-06T08:12:32.330Z,72.80
2023-04-06T08:15:03.706Z,72.80
2023-04-06T08:17:36.911Z,73.30
2023-04-06T08:20:07.854Z,73.10
2023-04-06T08:22:38.817Z,73.20
2023-04-06T08:25:10.800Z,74.30
2023-04-06T08:27:41.827Z,75.60
2023-04-06T08:30:14.289Z,76.00
2023-04-06T08:32:45.674Z,76.40
2023-04-06T08:35:17.682Z,76.50
2023-04-06T08:37:49.165Z,76.50
2023-04-06T08:40:22.333Z,76.90
2023-04-06T08:43:05.842Z,77.90
2023-04-06T08:45:37.594Z,77.60
2023-04-06T08:48:09.913Z,78.50
2023-04-06T08:50:44.218Z,78.40
2023-04-06T08:53:16.252Z,78.30
2023-04-06T08:55:48.202Z,78.00
2023-04-06T08:58:31.504Z,78.10
2023-04-06T09:01:13.988Z,78.20
2023-04-06T09:03:46.745Z,78.50
2023-04-06T09:06:19.765Z,79.30
2023-04-06T09:08:51.385Z,80.30
2023-04-06T09:11:24.817Z,80.70
2023-04-06T09:14:00.515Z,80.10
2023-04-06T09:16:31.526Z,79.30
2023-04-06T09:19:08.887Z,79.70
2023-04-06T09:21:40.156Z,79.50
2023-04-06T09:24:12.469Z,79.40
2023-04-06T09:26:52.401Z,79.40
2023-04-06T09:29:29.972Z,78.80
2023-04-06T09:32:11.253Z,78.40
2023-04-06T09:34:43.194Z,79.30
2023-04-06T09:37:18.391Z,78.50
2023-04-06T09:39:50.026Z,78.40
2023-04-06T09:42:39.619Z,78.10
2023-04-06T09:45:12.059Z,78.40
2023-04-06T09:47:46.667Z,79.40
2023-04-06T09:50:19.399Z,79.20
2023-04-06T09:53:00.477Z,78.70
2023-04-06T09:55:43.743Z,78.50
2023-04-06T09:58:29.265Z,78.80
2023-04-06T10:01:15.591Z,79.00
2023-04-06T10:04:05.659Z,78.20
2023-04-06T10:06:38.573Z,78.40
2023-04-06T10:09:12.827Z,78.30
2023-04-06T10:11:45.227Z,78.00
2023-04-06T10:14:17.458Z,78.00
2023-04-06T10:16:49.182Z,78.00
2023-04-06T10:19:33.802Z,77.90
2023-04-06T10:22:07.820Z,78.00
2023-04-06T10:24:39.284Z,78.00
2023-04-06T10:27:14.298Z,77.50
2023-04-06T10:29:50.922Z,77.80
2023-04-06T10:32:23.136Z,79.50
2023-04-06T10:34:53.810Z,80.40
2023-04-06T10:37:25.195Z,80.60
2023-04-06T10:40:01.028Z,80.70
2023-04-06T10:42:41.520Z,81.30
2023-04-06T10:45:22.527Z,80.90
2023-04-06T10:47:55.437Z,80.60
2023-04-06T10:50:26.541Z,80.00
2023-04-06T10:53:05.143Z,80.40
2023-04-06T10:55:35.721Z,80.70
2023-04-06T10:58:09.141Z,82.40
2023-04-06T11:00:50.827Z,82.80
2023-04-06T11:03:22.400Z,82.40
2023-04-06T11:05:54.054Z,82.50
2023-04-06T11:08:35.098Z,82.50
2023-04-06T11:11:21.091Z,82.50
2023-04-06T11:14:04.144Z,82.10
2023-04-06T11:16:37.186Z,82.50
2023-04-06T11:19:11.346Z,82.90
2023-04-06T11:21:51.298Z,83.20
2023-04-06T11:24:24.255Z,82.90
2023-04-06T11:27:01.958Z,84.20
2023-04-06T11:29:35.812Z,83.60
2023-04-06T11:32:11.151Z,83.70
2023-04-06T11:34:43.668Z,83.90
2023-04-06T11:37:15.684Z,83.80
2023-04-06T11:39:59.646Z,83.60
2023-04-06T11:42:32.201Z,83.90
2023-04-06T11:45:03.363Z,83.70
2023-04-06T11:47:39.040Z,83.30
2023-04-06T11:50:11.264Z,83.30
2023-04-06T11:52:45.946Z,83.90
2023-04-06T11:55:24.451Z,83.40
2023-04-06T11:57:55.329Z,83.30
2023-04-06T12:00:25.762Z,83.30
2023-04-06T12:02:56.067Z,83.20
2023-04-06T12:05:27.682Z,83.30
2023-04-06T12:08:00.080Z,83.70
2023-04-06T12:10:33.024Z,84.00
2023-04-06T12:13:03.915Z,84.10
2023-04-06T12:15:34.382Z,84.40
2023-04-06T12:18:05.216Z,84.20
2023-04-06T12:20:35.675Z,84.40
2023-04-06T12:23:06.069Z,83.60
2023-04-06T12:25:36.725Z,83.80
2023-04-06T12:28:07.237Z,83.80
2023-04-06T12:30:38.747Z,83.10
2023-04-06T12:33:09.102Z,84.00
2023-04-06T12:35:40.573Z,84.50
2023-04-06T12:38:11.177Z,84.20
2023-04-06T12:40:42.552Z,84.50
2023-04-06T12:43:13.513Z,84.50
2023-04-06T12:45:44.301Z,84.40
2023-04-06T12:48:14.625Z,84.60
2023-04-06T12:50:44.906Z,85.00
2023-04-06T12:53:15.237Z,85.30
2023-04-06T12:55:45.463Z,85.20
2023-04-06T12:58:16.003Z,84.80
2023-04-06T13:00:46.301Z,84.50
2023-04-06T13:03:16.828Z,84.80
2023-04-06T13:05:52.335Z,85.00
2023-04-06T13:08:29.118Z,85.00
2023-04-06T13:10:59.495Z,85.30
2023-04-06T13:13:31.239Z,85.20
2023-04-06T13:16:07.421Z,85.50
2023-04-06T13:18:41.618Z,85.20
2023-04-06T13:21:17.395Z,85.50
2023-04-06T13:23:47.856Z,85.50
2023-04-06T13:26:19.372Z,85.70
2023-04-06T13:28:49.776Z,86.50
2023-04-06T13:31:20.093Z,86.60
2023-04-06T13:33:50.372Z,85.70
2023-04-06T13:36:21.097Z,85.20
2023-04-06T13:38:51.932Z,85.50
2023-04-06T13:41:24.630Z,85.40
2023-04-06T13:43:55.644Z,86.40
2023-04-06T13:46:27.201Z,86.00
2023-04-06T13:48:58.153Z,86.00
2023-04-06T13:51:29.659Z,86.20
2023-04-06T13:53:59.866Z,86.00
2023-04-06T13:56:32.527Z,86.20
2023-04-06T13:59:03.378Z,86.10
2023-04-06T14:01:34.158Z,85.90
2023-04-06T14:04:05.327Z,85.70
2023-04-06T14:06:36.050Z,86.40
2023-04-06T14:09:07.108Z,86.50
2023-04-06T14:11:40.166Z,86.20
2023-04-06T14:14:11.175Z,86.20
2023-04-06T14:16:42.682Z,86.70
2023-04-06T14:19:17.123Z,87.30
2023-04-06T14:21:51.308Z,86.90
2023-04-06T14:24:24.601Z,86.80
2023-04-06T14:26:55.366Z,86.60
2023-04-06T14:29:25.786Z,86.60
2023-04-06T14:32:02.304Z,86.60
2023-04-06T14:34:32.810Z,87.00
2023-04-06T14:37:03.602Z,86.70
2023-04-06T14:39:33.951Z,87.00
2023-04-06T14:42:04.269Z,87.10
2023-04-06T14:44:39.304Z,87.50
2023-04-06T14:47:10.064Z,87.20
2023-04-06T14:49:40.580Z,87.10
2023-04-06T14:52:10.877Z,87.50
2023-04-06T14:54:43.205Z,88.00
2023-04-06T14:57:13.659Z,88.00
2023-04-06T14:59:46.729Z,88.40
2023-04-06T15:02:18.229Z,88.00
2023-04-06T15:04:48.590Z,87.60
2023-04-06T15:07:19.382Z,88.40
2023-04-06T15:09:49.575Z,88.00
2023-04-06T15:12:20.415Z,88.50
2023-04-06T15:14:50.715Z,88.70
2023-04-06T15:17:21.275Z,88.70
2023-04-06T15:19:51.564Z,89.30
2023-04-06T15:22:22.130Z,90.10
2023-04-06T15:24:53.676Z,89.60
2023-04-06T15:27:24.019Z,89.60
2023-04-06T15:29:54.380Z,89.10
2023-04-06T15:32:24.715Z,89.20
2023-04-06T15:34:56.499Z,89.40
2023-04-06T15:37:26.928Z,88.50
2023-04-06T15:39:59.506Z,88.10
2023-04-06T15:42:30.712Z,87.50
2023-04-06T15:45:00.985Z,87.30
2023-04-06T15:47:31.420Z,87.40
2023-04-06T15:50:02.184Z,86.90
2023-04-06T15:52:32.825Z,86.80
2023-04-06T15:55:03.266Z,86.90
2023-04-06T15:57:33.722Z,86.80
2023-04-06T16:00:05.486Z,87.20
2023-04-06T16:02:36.572Z,87.90
2023-04-06T16:05:07.434Z,88.70
2023-04-06T16:07:38.028Z,87.90
2023-04-06T16:10:09.014Z,87.50
2023-04-06T16:12:39.349Z,88.00
2023-04-06T16:15:10.194Z,88.00
2023-04-06T16:17:40.552Z,88.40
2023-04-06T16:20:11.522Z,88.80
2023-04-06T16:22:41.811Z,89.40
2023-04-06T16:25:13.605Z,88.40
2023-04-06T16:27:45.220Z,88.30
2023-04-06T16:30:16.482Z,88.80
2023-04-06T16:32:48.841Z,88.20
2023-04-06T16:35:19.598Z,88.20
2023-04-06T16:37:50.080Z,87.70
2023-04-06T16:40:20.584Z,88.80
2023-04-06T16:42:50.980Z,88.50
2023-04-06T16:45:21.318Z,88.40
2023-04-06T16:47:52.169Z,88.50
2023-04-06T16:50:22.507Z,88.30
2023-04-06T16:52:53.232Z,88.30
2023-04-06T16:55:23.608Z,88.40
2023-04-06T16:57:57.580Z,88.80
2023-04-06T17:00:27.962Z,88.60
2023-04-06T17:02:58.764Z,88.30
2023-04-06T17:05:29.708Z,88.40
2023-04-06T17:08:01.282Z,89.90
2023-04-06T17:10:33.788Z,88.80
2023-04-06T17:13:05.050Z,89.40
2023-04-06T17:15:37.449Z,89.20
2023-04-06T17:18:09.853Z,89.00
2023-04-06T17:20:40.682Z,89.70
2023-04-06T17:23:11.026Z,90.10
2023-04-06T17:25:41.312Z,90.50
2023-04-06T17:28:11.614Z,90.90
2023-04-06T17:30:44.280Z,90.90
2023-04-06T17:33:15.486Z,91.80
2023-04-06T17:35:46.424Z,91.90
2023-04-06T17:38:28.109Z,92.30
2023-04-06T17:40:58.975Z,93.20
2023-04-06T17:43:29.726Z,92.80
2023-04-06T17:45:59.945Z,92.90
2023-04-06T17:48:31.837Z,92.90
2023-04-06T17:51:02.055Z,93.00
2023-04-06T17:53:34.005Z,93.00
2023-04-06T17:56:07.487Z,93.10
2023-04-06T17:58:37.796Z,93.00
2023-04-06T18:01:16.187Z,93.10
2023-04-06T18:03:46.615Z,93.40
2023-04-06T18:06:19.355Z,93.50
2023-04-06T18:08:49.732Z,93.60
2023-04-06T18:11:27.356Z,93.80
2023-04-06T18:13:57.922Z,93.90
2023-04-06T18:16:29.981Z,93.90
2023-04-06T18:19:00.348Z,94.10
2023-04-06T18:21:30.829Z,93.90
2023-04-06T18:24:06.658Z,94.20
2023-04-06T18:26:38.425Z,94.10
2023-04-06T18:29:09.116Z,94.00
2023-04-06T18:31:39.853Z,93.90
2023-04-06T18:34:10.645Z,93.90
2023-04-06T18:36:41.416Z,93.60
2023-04-06T18:39:14.126Z,93.90
2023-04-06T18:41:44.817Z,93.90
2023-04-06T18:44:15.488Z,93.90
2023-04-06T18:46:50.157Z,93.90
2023-04-06T18:49:22.360Z,94.00
2023-04-06T18:51:53.245Z,93.90
2023-04-06T18:54:25.104Z,93.70
2023-04-06T18:56:55.805Z,93.80
2023-04-06T18:59:29.082Z,93.90
2023-04-06T19:02:01.345Z,94.30
2023-04-06T19:04:34.307Z,94.40
2023-04-06T19:07:06.065Z,94.40
2023-04-06T19:09:37.358Z,94.30
2023-04-06T19:12:26.595Z,94.50
2023-04-06T19:15:17.023Z,94.60
2023-04-06T19:17:47.958Z,94.40
2023-04-06T19:20:18.322Z,94.30
2023-04-06T19:22:48.650Z,94.20
2023-04-06T19:25:22.102Z,94.40
2023-04-06T19:27:52.307Z,94.40
2023-04-06T19:30:22.961Z,94.70
2023-04-06T19:32:53.225Z,95.00
2023-04-06T19:35:25.155Z,94.60
2023-04-06T19:37:55.863Z,94.50
2023-04-06T19:40:26.621Z,94.50
2023-04-06T19:42:58.845Z,94.70
2023-04-06T19:45:32.492Z,94.50
2023-04-06T19:48:04.464Z,94.20
2023-04-06T19:50:35.319Z,94.30
2023-04-06T19:53:05.553Z,94.40
2023-04-06T19:55:36.400Z,94.50
2023-04-06T19:58:07.541Z,94.50
2023-04-06T20:00:37.957Z,94.50
2023-04-06T20:03:09.098Z,94.50
2023-04-06T20:05:39.631Z,95.00
2023-04-06T20:08:10.686Z,94.90
2023-04-06T20:10:41.497Z,94.80
2023-04-06T20:13:12.216Z,94.70
2023-04-06T20:15:42.928Z,94.60
2023-04-06T20:18:13.219Z,94.50
2023-04-06T20:20:43.548Z,94.50
2023-04-06T20:23:14.622Z,94.70
2023-04-06T20:25:45.029Z,94.70
2023-04-06T20:28:15.632Z,95.10
2023-04-06T20:30:45.898Z,95.30
2023-04-06T20:33:16.698Z,95.50
2023-04-06T20:35:48.978Z,95.30
2023-04-06T20:38:33.731Z,95.30
2023-04-06T20:41:04.726Z,95.70
2023-04-06T20:43:36.120Z,96.00
2023-04-06T20:46:07.782Z,96.10
2023-04-06T20:48:39.690Z,96.30
2023-04-06T20:51:10.419Z,96.50
2023-04-06T20:53:41.912Z,96.70
2023-04-06T20:56:12.739Z,96.80
2023-04-06T20:58:43.059Z,96.90
2023-04-06T21:01:23.103Z,97.10
2023-04-06T21:03:56.995Z,97.10
2023-04-06T21:06:31.592Z,97.20
2023-04-06T21:09:03.442Z,97.00
2023-04-06T21:11:34.487Z,97.10
2023-04-06T21:14:05.423Z,97.20
2023-04-06T21:16:36.713Z,97.50
2023-04-06T21:19:07.595Z,97.80
2023-04-06T21:21:38.562Z,97.60
2023-04-06T21:24:09.433Z,97.50
2023-04-06T21:26:41.981Z,97.40
2023-04-06T21:29:12.682Z,97.40
2023-04-06T21:31:48.463Z,97.40
2023-04-06T21:34:19.346Z,97.60
2023-04-06T21:36:51.445Z,97.70
2023-04-06T21:39:22.134Z,97.90
2023-04-06T21:41:53.232Z,98.30
2023-04-06T21:44:24.098Z,98.60
2023-04-06T21:46:54.823Z,98.60
2023-04-06T21:49:26.381Z,98.20
2023-04-06T21:51:57.039Z,98.00
2023-04-06T21:54:27.757Z,97.80
2023-04-06T21:56:59.588Z,97.70
2023-04-06T21:59:33.147Z,97.60
2023-04-06T22:02:03.972Z,97.70
2023-04-06T22:04:35.316Z,98.30
2023-04-06T22:07:06.096Z,98.30
2023-04-06T22:09:37.360Z,97.80
2023-04-06T22:12:08.285Z,98.00
2023-04-06T22:14:39.317Z,98.30
2023-04-06T22:17:11.556Z,98.40
2023-04-06T22:19:46.365Z,98.00
2023-04-06T22:22:17.141Z,97.80
2023-04-06T22:24:47.856Z,97.60
2023-04-06T22:27:18.578Z,97.90
2023-04-06T22:29:49.240Z,98.20
2023-04-06T22:32:21.146Z,98.10
2023-04-06T22:34:51.961Z,98.20
2023-04-06T22:37:22.995Z,98.50
2023-04-06T22:39:53.945Z,98.30
2023-04-06T22:42:44.534Z,98.10
2023-04-06T22:45:15.372Z,98.60
2023-04-06T22:47:47.378Z,98.70
2023-04-06T22:50:18.523Z,98.90
2023-04-06T22:52:49.346Z,98.50
2023-04-06T22:55:21.001Z,98.00
2023-04-06T22:57:52.031Z,98.10
2023-04-06T23:00:23.153Z,98.10
2023-04-06T23:02:53.919Z,98.20
2023-04-06T23:05:24.685Z,98.20
2023-04-06T23:07:55.458Z,98.20
2023-04-06T23:10:28.169Z,98.10
2023-04-06T23:12:58.887Z,97.90
2023-04-06T23:15:29.678Z,97.90
2023-04-06T23:18:00.499Z,98.00
2023-04-06T23:20:30.825Z,98.50
2023-04-06T23:23:01.555Z,98.40
2023-04-06T23:25:32.456Z,98.10
2023-04-06T23:28:03.177Z,97.90
2023-04-06T23:30:33.849Z,98.20
2023-04-06T23:33:04.681Z,98.70
2023-04-06T23:35:35.321Z,98.40
2023-04-06T23:38:06.085Z,98.50
2023-04-06T23:40:40.752Z,98.50
2023-04-06T23:43:11.410Z,98.90
2023-04-06T23:45:51.674Z,98.50
2023-04-06T23:48:22.725Z,98.80
2023-04-06T23:50:54.668Z,99.00
2023-04-06T23:53:25.352Z,99.10
2023-04-06T23:55:56.089Z,99.10
2023-04-06T23:58:28.009Z,99.10
